createdAt,value
2019-04-21T00:00:45.633Z,102302.30
2019-04-21T00:03:19.381Z,102306.48
2019-04-21T00:06:07.168Z,102300.67
2019-04-21T00:08:39.222Z,102296.73
2019-04-21T00:11:09.691Z,102300.30
2019-04-21T00:13:32.608Z,102297.16
2019-04-21T00:15:54.907Z,102298.52
2019-04-21T00:18:49.879Z,102298.17
2019-04-21T00:21:22.447Z,102292.25
2019-04-21T00:24:01.854Z,102289.14
2019-04-21T00:26:36.379Z,102293.23
2019-04-21T00:29:09.119Z,102291.45
2019-04-21T00:31:34.149Z,102289.89
2019-04-21T00:33:53.355Z,102296.41
2019-04-21T00:36:29.433Z,102293.14
2019-04-21T00:39:28.869Z,102287.96
2019-04-21T00:41:48.579Z,102291.37
2019-04-21T00:44:12.592Z,102284.52
2019-04-21T00:46:45.196Z,102278.86
2019-04-21T00:49:17.010Z,102282.13
2019-04-21T00:52:15.907Z,102285.75
2019-04-21T00:54:41.748Z,102290.16
2019-04-21T00:57:14.519Z,102296.20
2019-04-21T00:59:46.374Z,102282.67
2019-04-21T01:02:14.317Z,102285.19
2019-04-21T01:04:44.783Z,102284.37
2019-04-21T01:07:13.246Z,102279.12
2019-04-21T01:09:44.012Z,102277.61
2019-04-21T01:12:23.493Z,102278.36
2019-04-21T01:14:58.257Z,102278.36
2019-04-21T01:17:22.974Z,102278.53
2019-04-21T01:19:44.823Z,102274.59
2019-04-21T01:22:04.432Z,102277.31
2019-04-21T01:24:39.650Z,102277.70
2019-04-21T01:27:15.816Z,102279.02
2019-04-21T01:30:01.256Z,102277.05
2019-04-21T01:32:29.259Z,102271.63
2019-04-21T01:35:02.733Z,102272.09
2019-04-21T01:37:41.172Z,102268.42
2019-04-21T01:40:08.704Z,102271.16
2019-04-21T01:42:32.776Z,102265.44
2019-04-21T01:45:05.522Z,102258.08
2019-04-21T01:47:36.009Z,102255.30
2019-04-21T01:49:59.060Z,102256.39
2019-04-21T01:52:52.459Z,102252.48
2019-04-21T01:55:19.500Z,102253.39
2019-04-21T01:57:57.640Z,102257.91
2019-04-21T02:00:39.394Z,102259.80
2019-04-21T02:03:37.522Z,102248.56
2019-04-21T02:05:52.010Z,102250.27
2019-04-21T02:08:20.356Z,102255.84
2019-04-21T02:10:58.777Z,102251.41
2019-04-21T02:13:18.771Z,102250.80
2019-04-21T02:15:56.345Z,102249.17
2019-04-21T02:18:23.169Z,102249.47
2019-04-21T02:20:45.604Z,102252.38
2019-04-21T02:23:34.424Z,102246.42
2019-04-21T02:26:03.842Z,102251.28
2019-04-21T02:28:40.413Z,102246.69
2019-04-21T02:31:20.446Z,102246.31
2019-04-21T02:33:54.261Z,102240.27
2019-04-21T02:39:06.253Z,102235.48
2019-04-21T02:41:13.001Z,102227.24
2019-04-21T02:43:58.345Z,102235.09
2019-04-21T02:46:35.877Z,102232.41
2019-04-21T02:48:55.451Z,102226.41
2019-04-21T02:51:31.482Z,102233.73
2019-04-21T02:56:45.433Z,102226.26
2019-04-21T02:59:12.414Z,102235.23
2019-04-21T03:10:11.831Z,102214.59
2019-04-21T03:12:42.224Z,102201.39
2019-04-21T03:15:15.995Z,102207.09
2019-04-21T03:20:19.427Z,102191.23
2019-04-21T03:22:42.136Z,102190.33
2019-04-21T03:25:33.093Z,102189.27
2019-04-21T03:27:56.885Z,102187.52
2019-04-21T03:33:43.149Z,102172.55
2019-04-21T03:37:55.422Z,102174.83
2019-04-21T03:40:22.299Z,102172.97
2019-04-21T03:42:59.798Z,102172.04
2019-04-21T03:45:30.685Z,102175.67
2019-04-21T03:48:01.315Z,102172.25
2019-04-21T03:50:33.406Z,102177.62
2019-04-21T03:53:06.862Z,102174.69
2019-04-21T04:09:14.331Z,102182.45
2019-04-21T04:11:29.133Z,102185.86
2019-04-21T04:19:09.457Z,102183.83
2019-04-21T04:24:18.044Z,102189.83
2019-04-21T04:26:36.995Z,102182.73
2019-04-21T04:29:03.414Z,102177.74
2019-04-21T04:39:36.511Z,102175.27
2019-04-21T04:47:05.476Z,102156.47
2019-04-21T04:57:18.109Z,102148.53
2019-04-21T04:59:43.003Z,102149.66
2019-04-21T05:02:20.074Z,102152.19
2019-04-21T05:04:46.055Z,102148.87
2019-04-21T05:09:42.747Z,102140.23
2019-04-21T05:12:24.493Z,102138.50
2019-04-21T05:17:21.571Z,102138.02
2019-04-21T05:19:53.890Z,102144.60
2019-04-21T05:22:17.243Z,102132.63
2019-04-21T05:24:39.051Z,102132.78
2019-04-21T05:27:07.360Z,102130.60
2019-04-21T05:29:55.631Z,102130.58
2019-04-21T05:32:32.012Z,102128.01
2019-04-21T05:35:01.617Z,102125.95
2019-04-21T05:37:43.329Z,102126.83
2019-04-21T05:40:15.797Z,102120.34
2019-04-21T05:42:49.620Z,102129.38
2019-04-21T05:45:29.800Z,102127.30
2019-04-21T05:48:23.204Z,102122.83
2019-04-21T05:50:49.513Z,102122.19
2019-04-21T05:53:31.048Z,102116.87
2019-04-21T05:55:56.984Z,102107.85
2019-04-21T05:58:27.168Z,102106.81
2019-04-21T06:03:36.923Z,102120.56
2019-04-21T06:08:37.223Z,102119.69
2019-04-21T06:11:10.353Z,102116.58
2019-04-21T06:16:07.407Z,102111.30
2019-04-21T06:18:48.895Z,102118.20
2019-04-21T06:21:09.775Z,102114.69
2019-04-21T06:23:40.230Z,102114.28
2019-04-21T06:26:47.912Z,102112.73
2019-04-21T06:29:09.147Z,102109.50
2019-04-21T06:31:19.976Z,102106.97
2019-04-21T06:33:50.824Z,102105.12
2019-04-21T06:36:42.299Z,102108.45
2019-04-21T06:41:41.519Z,102103.33
2019-04-21T06:46:44.828Z,102097.50
2019-04-21T06:49:13.149Z,102098.66
2019-04-21T06:51:48.185Z,102090.82
2019-04-21T06:54:25.274Z,102086.85
2019-04-21T06:56:54.284Z,102087.29
2019-04-21T06:59:24.639Z,102087.20
2019-04-21T07:02:05.340Z,102095.82
2019-04-21T07:07:00.483Z,102084.98
2019-04-21T07:09:31.396Z,102079.67
2019-04-21T07:11:59.976Z,102072.52
2019-04-21T07:14:32.010Z,102074.42
2019-04-21T07:17:12.604Z,102069.76
2019-04-21T07:19:41.015Z,102075.67
2019-04-21T07:22:15.799Z,102068.67
2019-04-21T07:24:46.130Z,102069.17
2019-04-21T07:27:08.813Z,102069.07
2019-04-21T07:29:50.573Z,102066.09
2019-04-21T07:32:31.924Z,102079.47
2019-04-21T07:34:41.234Z,102052.79
2019-04-21T07:37:11.883Z,102062.22
2019-04-21T07:39:46.897Z,102062.22
2019-04-21T07:42:13.409Z,102050.73
2019-04-21T07:44:48.110Z,102051.78
2019-04-21T07:47:20.422Z,102046.31
2019-04-21T07:50:08.807Z,102046.31
2019-04-21T07:52:48.696Z,102043.92
2019-04-21T07:57:39.103Z,102047.58
2019-04-21T08:02:52.356Z,102051.08
2019-04-21T08:05:19.856Z,102050.33
2019-04-21T08:07:51.979Z,102045.56
2019-04-21T08:10:23.250Z,102044.11
2019-04-21T08:12:48.158Z,102045.31
2019-04-21T08:15:29.093Z,102044.63
2019-04-21T08:17:54.727Z,102041.55
2019-04-21T08:20:24.739Z,102044.30
2019-04-21T08:22:59.301Z,102041.28
2019-04-21T08:25:53.504Z,102045.33
2019-04-21T08:28:05.292Z,102038.20
2019-04-21T08:30:47.817Z,102033.67
2019-04-21T08:38:10.600Z,102022.18
2019-04-21T08:40:56.332Z,102018.38
2019-04-21T08:43:12.622Z,102010.65
2019-04-21T08:45:46.843Z,102019.20
2019-04-21T08:48:18.167Z,102013.14
2019-04-21T08:50:44.300Z,102007.23
2019-04-21T08:53:14.426Z,102005.28
2019-04-21T08:56:14.993Z,102000.02
2019-04-21T08:58:59.184Z,101998.94
2019-04-21T09:04:06.038Z,102002.81
2019-04-21T09:06:54.289Z,101996.09
2019-04-21T09:09:14.716Z,101991.48
2019-04-21T09:11:34.887Z,101991.34
2019-04-21T09:14:13.133Z,101987.32
2019-04-21T09:16:36.670Z,101985.30
2019-04-21T09:19:11.461Z,101983.72
2019-04-21T09:21:43.571Z,101975.41
2019-04-21T09:24:18.409Z,101983.60
2019-04-21T09:26:48.052Z,101979.66
2019-04-21T09:29:10.905Z,101978.30
2019-04-21T09:31:36.529Z,101969.71
2019-04-21T09:34:06.429Z,101960.62
2019-04-21T09:36:44.198Z,101962.65
2019-04-21T09:39:20.327Z,101960.02
2019-04-21T09:41:51.156Z,101953.08
2019-04-21T09:44:25.947Z,101940.98
2019-04-21T09:46:54.875Z,101949.39
2019-04-21T09:49:25.974Z,101945.70
2019-04-21T09:51:53.617Z,101949.55
2019-04-21T09:54:28.434Z,101941.48
2019-04-21T09:57:00.280Z,101937.54
2019-04-21T09:59:32.101Z,101932.55
2019-04-21T10:02:08.453Z,101930.98
2019-04-21T10:04:31.123Z,101927.77
2019-04-21T10:07:02.348Z,101931.69
2019-04-21T10:09:33.481Z,101920.88
2019-04-21T10:12:03.194Z,101922.09
2019-04-21T10:14:33.072Z,101913.02
2019-04-21T10:17:21.646Z,101912.70
2019-04-21T10:19:52.830Z,101911.67
2019-04-21T10:22:23.214Z,101907.11
2019-04-21T10:24:54.248Z,101901.04
2019-04-21T10:27:25.240Z,101903.25
2019-04-21T10:29:56.101Z,101900.05
2019-04-21T10:32:25.873Z,101892.30
2019-04-21T10:34:55.522Z,101880.98
2019-04-21T10:37:41.309Z,101881.55
2019-04-21T10:39:57.721Z,101877.01
2019-04-21T10:42:27.548Z,101879.05
2019-04-21T10:44:57.208Z,101870.53
2019-04-21T10:47:27.090Z,101865.13
2019-04-21T10:49:58.242Z,101859.93
2019-04-21T10:52:47.109Z,101856.59
2019-04-21T10:55:38.988Z,101854.78
2019-04-21T10:58:08.576Z,101857.70
2019-04-21T11:00:41.935Z,101844.09
2019-04-21T11:03:30.910Z,101844.55
2019-04-21T11:06:01.180Z,101837.13
2019-04-21T11:08:37.531Z,101833.52
2019-04-21T11:11:03.719Z,101835.68
2019-04-21T11:13:34.765Z,101832.30
2019-04-21T11:16:05.501Z,101827.13
2019-04-21T11:18:35.961Z,101819.75
2019-04-21T11:21:06.954Z,101815.02
2019-04-21T11:23:37.521Z,101808.86
2019-04-21T11:26:07.812Z,101799.70
2019-04-21T11:28:38.768Z,101801.34
2019-04-21T11:31:09.029Z,101794.97
2019-04-21T11:33:39.574Z,101794.27
2019-04-21T11:36:09.504Z,101781.09
2019-04-21T11:39:05.359Z,101780.64
2019-04-21T11:41:18.004Z,101781.97
2019-04-21T11:43:48.816Z,101786.37
2019-04-21T11:46:20.410Z,101777.22
2019-04-21T11:48:52.482Z,101774.84
2019-04-21T11:51:22.802Z,101767.16
2019-04-21T11:53:52.889Z,101769.95
2019-04-21T11:56:23.188Z,101767.73
2019-04-21T11:58:54.006Z,101757.14
2019-04-21T12:01:23.823Z,101756.13
2019-04-21T12:03:53.767Z,101756.81
2019-04-21T12:06:33.489Z,101751.02
2019-04-21T12:08:58.994Z,101753.36
2019-04-21T12:11:27.281Z,101747.80
2019-04-21T12:13:58.311Z,101752.22
2019-04-21T12:16:28.806Z,101746.75
2019-04-21T12:18:58.845Z,101732.95
2019-04-21T12:21:39.038Z,101731.14
2019-04-21T12:24:00.708Z,101729.30
2019-04-21T12:26:31.684Z,101725.47
2019-04-21T12:29:01.869Z,101724.38
2019-04-21T12:32:03.498Z,101722.61
2019-04-21T12:34:34.297Z,101714.60
2019-04-21T12:37:04.602Z,101710.11
2019-04-21T12:39:36.794Z,101704.68
2019-04-21T12:42:06.861Z,101697.16
2019-04-21T12:44:37.166Z,101695.77
2019-04-21T12:47:07.968Z,101692.62
2019-04-21T12:49:38.057Z,101689.03
2019-04-21T12:52:09.253Z,101688.08
2019-04-21T12:54:39.674Z,101687.50
2019-04-21T12:57:09.665Z,101680.59
2019-04-21T12:59:39.717Z,101686.79
2019-04-21T13:02:09.643Z,101682.31
2019-04-21T13:04:40.027Z,101676.33
2019-04-21T13:07:09.935Z,101670.34
2019-04-21T13:09:40.207Z,101664.09
2019-04-21T13:12:11.095Z,101670.47
2019-04-21T13:14:42.131Z,101666.55
2019-04-21T13:17:13.154Z,101662.03
2019-04-21T13:19:43.606Z,101656.09
2019-04-21T13:22:14.144Z,101649.55
2019-04-21T13:24:44.144Z,101651.11
2019-04-21T13:27:15.457Z,101645.86
2019-04-21T13:29:46.262Z,101641.06
2019-04-21T13:32:16.418Z,101640.09
2019-04-21T13:34:47.811Z,101634.89
2019-04-21T13:37:19.497Z,101633.54
2019-04-21T13:40:35.322Z,101631.89
2019-04-21T13:42:55.013Z,101632.12
2019-04-21T13:45:21.928Z,101632.59
2019-04-21T13:47:52.634Z,101633.16
2019-04-21T13:50:23.675Z,101623.73
2019-04-21T13:52:54.519Z,101626.30
2019-04-21T13:55:25.567Z,101622.27
2019-04-21T13:57:56.811Z,101618.23
2019-04-21T14:00:27.540Z,101615.41
2019-04-21T14:02:58.648Z,101612.73
2019-04-21T14:05:28.735Z,101606.55
2019-04-21T14:07:58.475Z,101612.09
2019-04-21T14:10:29.251Z,101606.39
2019-04-21T14:13:00.466Z,101605.77
2019-04-21T14:15:30.497Z,101602.12
2019-04-21T14:18:00.601Z,101598.34
2019-04-21T14:20:31.196Z,101591.44
2019-04-21T14:23:13.496Z,101588.84
2019-04-21T14:25:32.599Z,101589.56
2019-04-21T14:28:02.292Z,101584.94
2019-04-21T14:30:32.570Z,101581.41
2019-04-21T14:33:02.449Z,101576.70
2019-04-21T14:35:32.815Z,101574.77
2019-04-21T14:38:02.790Z,101577.38
2019-04-21T14:40:35.177Z,101572.41
2019-04-21T14:43:05.939Z,101569.77
2019-04-21T14:45:54.412Z,101567.39
2019-04-21T14:49:01.433Z,101553.19
2019-04-21T14:51:49.287Z,101559.08
2019-04-21T14:54:42.909Z,101555.54
2019-04-21T14:57:13.568Z,101557.91
2019-04-21T14:59:44.788Z,101551.31
2019-04-21T15:02:16.071Z,101554.14
2019-04-21T15:04:45.987Z,101550.20
2019-04-21T15:07:15.592Z,101543.80
2019-04-21T15:09:46.446Z,101544.98
2019-04-21T15:12:16.359Z,101539.91
2019-04-21T15:14:47.573Z,101545.59
2019-04-21T15:17:20.693Z,101542.75
2019-04-21T15:19:50.900Z,101533.23
2019-04-21T15:22:21.075Z,101534.98
2019-04-21T15:24:52.014Z,101529.52
2019-04-21T15:27:23.131Z,101534.47
2019-04-21T15:29:53.073Z,101525.81
2019-04-21T15:32:24.238Z,101514.05
2019-04-21T15:34:54.162Z,101515.96
2019-04-21T15:37:24.157Z,101511.23
2019-04-21T15:39:54.025Z,101508.00
2019-04-21T15:42:24.329Z,101513.70
2019-04-21T15:44:54.664Z,101510.38
2019-04-21T15:47:24.381Z,101509.39
2019-04-21T15:50:00.826Z,101510.05
2019-04-21T15:52:28.011Z,101503.53
2019-04-21T15:55:28.508Z,101502.16
2019-04-21T15:58:04.810Z,101496.48
2019-04-21T16:00:40.868Z,101507.59
2019-04-21T16:03:10.929Z,101498.36
2019-04-21T16:05:42.651Z,101497.87
2019-04-21T16:08:12.472Z,101488.65
2019-04-21T16:10:49.168Z,101483.58
2019-04-21T16:13:13.976Z,101487.81
2019-04-21T16:15:45.988Z,101487.43
2019-04-21T16:18:18.241Z,101481.13
2019-04-21T16:20:48.104Z,101485.12
2019-04-21T16:23:18.211Z,101477.64
2019-04-21T16:25:48.676Z,101481.17
2019-04-21T16:28:19.283Z,101483.80
2019-04-21T16:30:49.028Z,101476.65
2019-04-21T16:33:18.838Z,101479.66
2019-04-21T16:35:49.561Z,101481.97
2019-04-21T16:38:19.734Z,101470.84
2019-04-21T16:40:56.395Z,101469.18
2019-04-21T16:43:20.980Z,101469.18
2019-04-21T16:45:50.778Z,101471.77
2019-04-21T16:48:21.184Z,101468.82
2019-04-21T16:50:52.002Z,101455.30
2019-04-21T16:53:26.047Z,101462.27
2019-04-21T16:56:20.676Z,101467.36
2019-04-21T16:58:54.695Z,101452.44
2019-04-21T17:01:29.176Z,101455.23
2019-04-21T17:03:58.499Z,101456.60
2019-04-21T17:06:29.205Z,101452.88
2019-04-21T17:08:59.180Z,101452.55
2019-04-21T17:14:00.627Z,101453.17
2019-04-21T17:16:31.947Z,101442.55
2019-04-21T17:17:09.683Z,101453.17
2019-04-21T17:19:13.711Z,101441.91
2019-04-21T17:21:34.210Z,101445.58
2019-04-21T17:24:04.575Z,101444.03
2019-04-21T17:26:39.006Z,101452.47
2019-04-21T17:29:06.848Z,101447.91
2019-04-21T17:31:37.155Z,101441.64
2019-04-21T17:34:12.317Z,101441.64
2019-04-21T17:36:39.253Z,101444.13
2019-04-21T17:39:10.997Z,101443.78
2019-04-21T17:41:55.721Z,101436.41
2019-04-21T17:44:12.361Z,101442.16
2019-04-21T17:46:48.582Z,101442.16
2019-04-21T17:49:14.879Z,101438.84
2019-04-21T17:52:09.824Z,101444.53
2019-04-21T17:54:46.571Z,101447.27
2019-04-21T17:57:32.327Z,101449.77
2019-04-21T18:00:04.121Z,101441.14
2019-04-21T18:02:38.576Z,101437.95
2019-04-21T18:05:09.236Z,101439.63
2019-04-21T18:07:34.994Z,101437.91
2019-04-21T18:10:10.019Z,101445.30
2019-04-21T18:12:36.413Z,101442.44
2019-04-21T18:15:16.191Z,101444.52
2019-04-21T18:17:24.769Z,101444.17
2019-04-21T18:19:55.627Z,101448.55
2019-04-21T18:22:49.878Z,101442.88
2019-04-21T18:25:31.981Z,101434.37
2019-04-21T18:27:52.409Z,101445.39
2019-04-21T18:30:48.715Z,101442.27
2019-04-21T18:33:27.174Z,101445.83
2019-04-21T18:36:08.554Z,101443.42
2019-04-21T18:39:04.211Z,101445.38
2019-04-21T18:41:21.807Z,101439.12
2019-04-21T18:44:23.612Z,101448.66
2019-04-21T18:46:52.556Z,101446.07
2019-04-21T18:49:29.145Z,101441.95
2019-04-21T18:52:16.823Z,101443.48
2019-04-21T18:54:52.564Z,101448.45
2019-04-21T18:57:19.535Z,101447.98
2019-04-21T18:59:43.380Z,101448.20
2019-04-21T19:02:14.910Z,101447.30
2019-04-21T19:04:44.171Z,101455.03
2019-04-21T19:07:27.575Z,101461.05
2019-04-21T19:10:14.877Z,101459.38
2019-04-21T19:15:02.466Z,101462.97
2019-04-21T19:20:11.730Z,101465.59
2019-04-21T19:22:38.661Z,101461.79
2019-04-21T19:25:13.085Z,101468.17
2019-04-21T19:27:42.188Z,101464.06
2019-04-21T19:30:36.817Z,101472.03
2019-04-21T19:32:48.204Z,101468.14
2019-04-21T19:35:01.589Z,101469.08
2019-04-21T19:37:42.258Z,101472.89
2019-04-21T19:40:15.820Z,101468.19
2019-04-21T19:42:42.598Z,101463.27
2019-04-21T19:45:22.541Z,101468.11
2019-04-21T19:47:52.758Z,101459.78
2019-04-21T19:50:30.964Z,101466.66
2019-04-21T19:52:51.907Z,101464.84
2019-04-21T19:55:13.974Z,101461.66
2019-04-21T19:57:45.036Z,101457.25
2019-04-21T20:00:19.190Z,101459.57
2019-04-21T20:02:50.413Z,101461.93
2019-04-21T20:05:30.309Z,101457.81
2019-04-21T20:08:06.387Z,101459.88
2019-04-21T20:10:44.389Z,101456.38
2019-04-21T20:13:26.134Z,101456.25
2019-04-21T20:15:44.755Z,101460.30
2019-04-21T20:18:11.349Z,101452.02
2019-04-21T20:20:31.061Z,101455.80
2019-04-21T20:23:01.305Z,101451.42
2019-04-21T20:25:39.308Z,101446.65
2019-04-21T20:28:14.771Z,101451.45
2019-04-21T20:30:58.415Z,101446.97
2019-04-21T20:35:58.281Z,101441.48
2019-04-21T20:38:19.369Z,101445.22
2019-04-21T20:40:51.019Z,101450.80
2019-04-21T20:43:34.375Z,101448.86
2019-04-21T20:46:02.401Z,101461.33
2019-04-21T20:48:23.741Z,101451.13
2019-04-21T20:51:06.437Z,101458.74
2019-04-21T20:53:33.088Z,101452.30
2019-04-21T20:55:59.190Z,101462.62
2019-04-21T20:58:34.798Z,101464.88
2019-04-21T21:03:39.102Z,101457.45
2019-04-21T21:06:08.011Z,101454.14
2019-04-21T21:08:44.578Z,101461.16
2019-04-21T21:11:09.506Z,101451.62
2019-04-21T21:13:47.761Z,101446.86
2019-04-21T21:16:19.974Z,101453.25
2019-04-21T21:21:20.968Z,101450.08
2019-04-21T21:23:52.751Z,101451.95
2019-04-21T21:26:25.536Z,101457.81
2019-04-21T21:28:48.647Z,101474.01
2019-04-21T21:31:30.765Z,101463.59
2019-04-21T21:34:06.263Z,101451.36
2019-04-21T21:36:31.854Z,101458.36
2019-04-21T21:38:59.931Z,101449.48
2019-04-21T21:41:22.149Z,101449.00
2019-04-21T21:43:56.598Z,101457.56
2019-04-21T21:46:39.021Z,101451.97
2019-04-21T21:49:01.965Z,101445.81
2019-04-21T21:51:38.236Z,101444.14
2019-04-21T21:53:52.718Z,101450.07
2019-04-21T21:56:22.818Z,101452.88
2019-04-21T21:58:53.843Z,101448.73
2019-04-21T22:01:31.834Z,101449.86
2019-04-21T22:04:07.225Z,101451.53
2019-04-21T22:06:38.709Z,101443.46
2019-04-21T22:08:58.607Z,101451.31
2019-04-21T22:11:29.787Z,101453.86
2019-04-21T22:14:04.370Z,101453.86
2019-04-21T22:16:45.422Z,101457.83
2019-04-21T22:19:21.937Z,101449.44
2019-04-21T22:21:53.552Z,101459.02
2019-04-21T22:24:19.366Z,101453.74
2019-04-21T22:26:37.056Z,101457.13
2019-04-21T22:29:07.735Z,101460.52
2019-04-21T22:31:40.746Z,101453.84
2019-04-21T22:34:12.627Z,101457.50
2019-04-21T22:36:48.773Z,101459.53
2019-04-21T22:39:28.518Z,101461.56
2019-04-21T22:41:46.801Z,101456.87
2019-04-21T22:44:18.965Z,101467.02
2019-04-21T22:46:59.932Z,101469.61
2019-04-21T22:49:22.020Z,101471.63
2019-04-21T22:51:52.444Z,101472.82
2019-04-21T22:54:30.925Z,101482.91
2019-04-21T22:57:04.178Z,101476.25
2019-04-21T22:59:26.784Z,101479.34
2019-04-21T23:01:57.719Z,101476.00
2019-04-21T23:04:34.183Z,101472.96
2019-04-21T23:07:04.125Z,101466.00
2019-04-21T23:09:30.801Z,101469.07
2019-04-21T23:12:01.928Z,101465.73
2019-04-21T23:14:43.847Z,101466.55
2019-04-21T23:17:26.614Z,101466.58
2019-04-21T23:19:46.244Z,101469.09
2019-04-21T23:22:21.364Z,101468.27
2019-04-21T23:24:59.136Z,101469.09
2019-04-21T23:27:23.805Z,101469.64
2019-04-21T23:30:11.695Z,101461.53
2019-04-21T23:32:25.928Z,101460.71
2019-04-21T23:34:45.593Z,101464.65
2019-04-21T23:37:20.242Z,101466.63
2019-04-21T23:39:47.714Z,101468.58
2019-04-21T23:42:26.070Z,101464.72
2019-04-21T23:44:54.423Z,101465.83
2019-04-21T23:47:34.537Z,101458.59
2019-04-21T23:50:00.104Z,101462.23
2019-04-21T23:52:23.855Z,101461.41
2019-04-21T23:54:53.648Z,101464.79
2019-04-21T23:57:31.493Z,101462.84
2019-04-21T23:59:58.849Z,101463.41
